createdAt,value
2023-04-27T00:02:20.959Z,47.12
2023-04-27T00:04:50.996Z,47.19
2023-04-27T00:07:19.008Z,47.12
2023-04-27T00:09:46.783Z,47.18
2023-04-27T00:12:15.217Z,47.04
2023-04-27T00:14:43.011Z,46.86
2023-04-27T00:17:10.978Z,47.49
2023-04-27T00:19:40.207Z,47.23
2023-04-27T00:22:09.614Z,46.93
2023-04-27T00:24:37.450Z,47.59
2023-04-27T00:27:06.275Z,47.30
2023-04-27T00:29:34.290Z,47.22
2023-04-27T00:32:02.158Z,47.77
2023-04-27T00:34:30.562Z,47.81
2023-04-27T00:36:58.865Z,47.60
2023-04-27T00:39:27.996Z,47.45
2023-04-27T00:41:56.351Z,47.99
2023-04-27T00:44:25.142Z,48.17
2023-04-27T00:46:53.711Z,48.15
2023-04-27T00:49:23.086Z,48.00
2023-04-27T00:51:50.960Z,48.11
2023-04-27T00:54:21.838Z,47.95
2023-04-27T00:56:52.258Z,48.08
2023-04-27T00:59:20.540Z,48.53
2023-04-27T01:01:48.735Z,48.67
2023-04-27T01:04:17.349Z,48.56
2023-04-27T01:06:45.543Z,48.51
2023-04-27T01:09:13.916Z,48.70
2023-04-27T01:11:42.528Z,48.78
2023-04-27T01:14:11.718Z,48.92
2023-04-27T01:16:39.554Z,49.01
2023-04-27T01:19:09.329Z,48.73
2023-04-27T01:21:36.904Z,47.29
2023-04-27T01:24:07.488Z,48.66
2023-04-27T01:26:36.238Z,48.78
2023-04-27T01:29:04.053Z,49.11
2023-04-27T01:31:32.233Z,48.81
2023-04-27T01:34:00.829Z,48.91
2023-04-27T01:36:28.746Z,48.62
2023-04-27T01:38:56.642Z,48.39
2023-04-27T01:41:26.429Z,48.78
2023-04-27T01:43:54.199Z,48.40
2023-04-27T01:46:22.117Z,48.82
2023-04-27T01:48:50.429Z,49.53
2023-04-27T01:51:18.206Z,49.06
2023-04-27T01:53:45.993Z,48.93
2023-04-27T01:56:13.814Z,48.98
2023-04-27T01:58:43.026Z,49.75
2023-04-27T02:01:11.484Z,49.00
2023-04-27T02:03:39.803Z,48.95
2023-04-27T02:06:08.223Z,49.09
2023-04-27T02:08:36.024Z,49.31
2023-04-27T02:11:04.308Z,49.79
2023-04-27T02:13:32.063Z,49.65
2023-04-27T02:16:02.208Z,49.98
2023-04-27T02:18:30.419Z,50.00
2023-04-27T02:20:58.172Z,49.17
2023-04-27T02:23:26.045Z,49.27
2023-04-27T02:25:54.169Z,49.67
2023-04-27T02:28:21.969Z,50.28
2023-04-27T02:30:50.213Z,50.04
2023-04-27T02:33:19.747Z,49.28
2023-04-27T02:35:47.514Z,50.34
2023-04-27T02:38:15.774Z,49.86
2023-04-27T02:40:44.076Z,49.89
2023-04-27T02:43:11.981Z,49.77
2023-04-27T02:45:39.763Z,50.59
2023-04-27T02:48:08.287Z,50.38
2023-04-27T02:50:41.906Z,50.26
2023-04-27T02:53:10.230Z,49.84
2023-04-27T02:55:38.420Z,50.20
2023-04-27T02:58:06.234Z,50.43
2023-04-27T03:00:34.623Z,49.94
2023-04-27T03:03:03.017Z,49.87
2023-04-27T03:05:31.809Z,50.81
2023-04-27T03:08:01.869Z,50.22
2023-04-27T03:10:29.698Z,50.63
2023-04-27T03:12:57.476Z,50.98
2023-04-27T03:15:25.586Z,50.10
2023-04-27T03:17:53.460Z,50.14
2023-04-27T03:20:23.013Z,50.33
2023-04-27T03:22:51.119Z,50.14
2023-04-27T03:25:20.470Z,50.30
2023-04-27T03:27:48.262Z,51.16
2023-04-27T03:30:16.850Z,50.87
2023-04-27T03:32:47.063Z,50.31
2023-04-27T03:35:15.767Z,51.25
2023-04-27T03:37:46.247Z,50.45
2023-04-27T03:40:15.494Z,51.11
2023-04-27T03:42:44.674Z,51.08
2023-04-27T03:45:13.203Z,50.98
2023-04-27T03:47:41.179Z,51.35
2023-04-27T03:50:09.825Z,50.36
2023-04-27T03:52:37.910Z,51.33
2023-04-27T03:55:07.308Z,51.15
2023-04-27T03:57:35.118Z,50.89
2023-04-27T04:00:11.419Z,51.55
2023-04-27T04:02:39.388Z,51.42
2023-04-27T04:05:07.751Z,51.02
2023-04-27T04:07:35.940Z,51.28
2023-04-27T04:10:03.876Z,51.15
2023-04-27T04:12:31.703Z,51.87
2023-04-27T04:14:59.826Z,51.14
2023-04-27T04:17:29.313Z,51.66
2023-04-27T04:19:57.114Z,51.91
2023-04-27T04:22:25.288Z,51.44
2023-04-27T04:24:53.586Z,52.39
2023-04-27T04:27:21.403Z,52.24
2023-04-27T04:29:49.466Z,58.43
2023-04-27T04:32:19.562Z,57.02
2023-04-27T04:34:52.053Z,55.98
2023-04-27T04:37:19.816Z,53.18
2023-04-27T04:39:47.628Z,51.46
2023-04-27T04:42:16.107Z,52.12
2023-04-27T04:44:44.662Z,51.13
2023-04-27T04:47:13.106Z,50.69
2023-04-27T04:49:41.624Z,51.63
2023-04-27T04:52:10.861Z,51.49
2023-04-27T04:54:38.624Z,51.09
2023-04-27T04:57:08.174Z,50.59
2023-04-27T04:59:36.038Z,51.11
2023-04-27T05:02:03.825Z,51.03
2023-04-27T05:04:32.853Z,51.17
2023-04-27T05:07:01.258Z,50.98
2023-04-27T05:09:30.482Z,50.96
2023-04-27T05:11:58.822Z,51.34
2023-04-27T05:14:26.947Z,51.25
2023-04-27T05:16:54.712Z,50.88
2023-04-27T05:19:22.698Z,51.50
2023-04-27T05:21:50.532Z,50.87
2023-04-27T05:24:18.342Z,50.83
2023-04-27T05:26:48.138Z,51.47
2023-04-27T05:29:16.422Z,50.71
2023-04-27T05:31:44.500Z,50.97
2023-04-27T05:34:13.741Z,50.70
2023-04-27T05:36:41.562Z,50.58
2023-04-27T05:39:09.377Z,50.60
2023-04-27T05:41:37.296Z,51.08
2023-04-27T05:44:06.652Z,50.80
2023-04-27T05:46:36.441Z,50.83
2023-04-27T05:49:05.823Z,50.70
2023-04-27T05:51:34.288Z,50.10
2023-04-27T05:54:02.202Z,50.23
2023-04-27T05:56:30.562Z,50.26
2023-04-27T05:58:59.476Z,50.01
2023-04-27T06:01:29.717Z,49.78
2023-04-27T06:04:02.052Z,50.18
2023-04-27T06:06:32.960Z,49.77
2023-04-27T06:09:01.288Z,50.28
2023-04-27T06:11:29.194Z,50.03
2023-04-27T06:13:57.059Z,49.91
2023-04-27T06:16:25.547Z,49.27
2023-04-27T06:18:54.746Z,49.50
2023-04-27T06:21:22.498Z,49.60
2023-04-27T06:23:51.085Z,49.26
2023-04-27T06:26:18.880Z,49.02
2023-04-27T06:28:46.775Z,49.39
2023-04-27T06:31:15.882Z,49.13
2023-04-27T06:33:43.727Z,48.62
2023-04-27T06:36:12.905Z,48.63
2023-04-27T06:38:41.654Z,48.56
2023-04-27T06:41:09.497Z,48.34
2023-04-27T06:43:37.286Z,48.10
2023-04-27T06:46:06.705Z,48.18
2023-04-27T06:48:35.029Z,47.79
2023-04-27T06:51:02.810Z,48.01
2023-04-27T06:53:32.566Z,47.60
2023-04-27T06:56:00.442Z,47.41
2023-04-27T06:58:28.272Z,46.87
2023-04-27T07:00:57.922Z,47.38
2023-04-27T07:03:25.924Z,47.41
2023-04-27T07:05:54.160Z,46.95
2023-04-27T07:08:22.556Z,46.57
2023-04-27T07:10:51.762Z,46.38
2023-04-27T07:13:19.577Z,46.32
2023-04-27T07:15:47.954Z,45.90
2023-04-27T07:18:16.026Z,45.81
2023-04-27T07:20:43.977Z,45.77
2023-04-27T07:23:12.292Z,45.79
2023-04-27T07:25:40.463Z,45.22
2023-04-27T07:28:09.922Z,45.59
2023-04-27T07:30:38.601Z,45.50
2023-04-27T07:33:07.234Z,45.18
2023-04-27T07:35:35.384Z,45.22
2023-04-27T07:38:04.361Z,45.03
2023-04-27T07:40:32.776Z,45.22
2023-04-27T07:43:00.622Z,44.98
2023-04-27T07:45:33.465Z,44.86
2023-04-27T07:48:02.476Z,44.40
2023-04-27T07:50:31.029Z,44.37
2023-04-27T07:52:59.406Z,44.26
2023-04-27T07:55:28.665Z,44.37
2023-04-27T07:57:57.763Z,44.67
2023-04-27T08:00:26.968Z,44.35
2023-04-27T08:02:56.591Z,44.37
2023-04-27T08:05:25.025Z,43.71
2023-04-27T08:07:54.828Z,43.22
2023-04-27T08:10:22.614Z,44.91
2023-04-27T08:12:50.720Z,42.88
2023-04-27T08:15:19.214Z,43.39
2023-04-27T08:17:47.362Z,42.86
2023-04-27T08:20:16.820Z,43.26
2023-04-27T08:22:45.828Z,42.50
2023-04-27T08:25:13.671Z,42.03
2023-04-27T08:27:41.777Z,42.15
2023-04-27T08:30:11.714Z,42.08
2023-04-27T08:32:40.104Z,41.39
2023-04-27T08:35:08.353Z,40.75
2023-04-27T08:37:38.061Z,41.24
2023-04-27T08:40:08.059Z,40.90
2023-04-27T08:42:35.942Z,41.07
2023-04-27T08:45:04.693Z,41.23
2023-04-27T08:47:42.532Z,40.49
2023-04-27T08:50:12.764Z,40.64
2023-04-27T08:52:44.758Z,40.52
2023-04-27T08:55:15.729Z,40.33
2023-04-27T08:57:55.363Z,41.01
2023-04-27T09:00:23.792Z,40.68
2023-04-27T09:02:51.809Z,40.43
2023-04-27T09:05:20.686Z,40.43
2023-04-27T09:08:01.359Z,40.56
2023-04-27T09:10:30.013Z,39.00
2023-04-27T09:13:02.443Z,38.97
2023-04-27T09:15:30.373Z,38.96
2023-04-27T09:17:58.884Z,38.66
2023-04-27T09:20:29.188Z,38.17
2023-04-27T09:22:58.508Z,37.86
2023-04-27T09:25:28.849Z,40.07
2023-04-27T09:27:58.578Z,38.50
2023-04-27T09:30:26.433Z,39.21
2023-04-27T09:32:56.033Z,38.66
2023-04-27T09:35:25.059Z,39.04
2023-04-27T09:37:53.899Z,37.45
2023-04-27T09:40:27.088Z,37.58
2023-04-27T09:42:57.912Z,38.02
2023-04-27T09:45:26.527Z,36.85
2023-04-27T09:47:55.604Z,37.22
2023-04-27T09:50:23.553Z,37.29
2023-04-27T09:52:51.541Z,36.92
2023-04-27T09:55:26.070Z,37.16
2023-04-27T09:58:07.761Z,37.20
2023-04-27T10:00:49.792Z,37.38
2023-04-27T10:03:24.810Z,36.22
2023-04-27T10:06:37.224Z,36.74
2023-04-27T10:09:06.628Z,37.11
2023-04-27T10:11:40.075Z,36.23
2023-04-27T10:14:11.832Z,36.67
2023-04-27T10:16:47.105Z,36.71
2023-04-27T10:19:15.641Z,35.50
2023-04-27T10:21:54.915Z,36.34
2023-04-27T10:24:33.614Z,36.72
2023-04-27T10:27:07.099Z,35.43
2023-04-27T10:29:41.822Z,36.54
2023-04-27T10:32:11.964Z,35.28
2023-04-27T10:34:41.531Z,37.12
2023-04-27T10:37:10.916Z,37.56
2023-04-27T10:39:48.450Z,35.93
2023-04-27T10:42:28.615Z,35.82
2023-04-27T10:44:59.659Z,34.65
2023-04-27T10:47:38.690Z,34.73
2023-04-27T10:50:08.925Z,34.73
2023-04-27T10:52:36.750Z,35.70
2023-04-27T10:55:18.537Z,35.98
2023-04-27T10:57:51.042Z,35.98
2023-04-27T11:00:26.113Z,36.00
2023-04-27T11:02:54.702Z,36.07
2023-04-27T11:05:29.641Z,35.08
2023-04-27T11:08:06.984Z,35.55
2023-04-27T11:10:36.252Z,34.86
2023-04-27T11:13:11.636Z,34.62
2023-04-27T11:15:51.879Z,34.90
2023-04-27T11:18:21.313Z,34.30
2023-04-27T11:20:51.705Z,34.88
2023-04-27T11:23:26.862Z,35.30
2023-04-27T11:25:55.241Z,34.55
2023-04-27T11:28:24.103Z,34.49
2023-04-27T11:30:59.728Z,34.67
2023-04-27T11:33:27.993Z,34.30
2023-04-27T11:35:56.661Z,34.15
2023-04-27T11:38:25.184Z,34.91
2023-04-27T11:41:03.519Z,33.96
2023-04-27T11:43:31.737Z,33.28
2023-04-27T11:46:04.099Z,33.99
2023-04-27T11:48:32.329Z,33.88
2023-04-27T11:51:01.448Z,34.14
2023-04-27T11:53:34.413Z,34.17
2023-04-27T11:56:05.120Z,34.25
2023-04-27T11:58:35.514Z,33.27
2023-04-27T12:01:05.499Z,33.53
2023-04-27T12:03:33.736Z,32.12
2023-04-27T12:08:33.387Z,32.88
2023-04-27T12:11:01.220Z,32.58
2023-04-27T12:13:29.091Z,32.71
2023-04-27T12:15:58.465Z,32.68
2023-04-27T12:18:28.293Z,33.31
2023-04-27T12:20:56.722Z,33.59
2023-04-27T12:23:24.537Z,32.80
2023-04-27T12:25:52.364Z,32.68
2023-04-27T12:28:21.007Z,32.89
2023-04-27T12:30:49.783Z,33.24
2023-04-27T12:33:17.726Z,33.50
2023-04-27T12:35:46.894Z,32.81
2023-04-27T12:38:14.681Z,33.03
2023-04-27T12:40:42.556Z,32.31
2023-04-27T12:43:10.996Z,32.05
2023-04-27T12:45:38.775Z,31.82
2023-04-27T12:48:07.304Z,32.61
2023-04-27T12:50:38.005Z,32.40
2023-04-27T12:53:07.388Z,32.76
2023-04-27T12:55:35.228Z,31.98
2023-04-27T12:58:04.762Z,31.42
2023-04-27T13:00:32.575Z,32.80
2023-04-27T13:03:00.559Z,31.60
2023-04-27T13:05:31.271Z,31.74
2023-04-27T13:07:59.820Z,31.58
2023-04-27T13:10:29.681Z,31.78
2023-04-27T13:12:57.876Z,30.68
2023-04-27T13:15:25.653Z,30.61
2023-04-27T13:17:54.902Z,30.70
2023-04-27T13:20:22.813Z,30.95
2023-04-27T13:22:50.597Z,31.51
2023-04-27T13:25:20.435Z,31.08
2023-04-27T13:27:50.173Z,31.06
2023-04-27T13:30:18.096Z,31.96
2023-04-27T13:32:46.474Z,31.22
2023-04-27T13:35:14.528Z,30.93
2023-04-27T13:37:42.781Z,31.37
2023-04-27T13:40:12.751Z,30.96
2023-04-27T13:42:41.091Z,30.61
2023-04-27T13:45:11.450Z,30.71
2023-04-27T13:47:40.836Z,31.10
2023-04-27T13:50:10.567Z,30.54
2023-04-27T13:52:40.311Z,30.76
2023-04-27T13:55:10.219Z,30.10
2023-04-27T13:57:38.905Z,31.24
2023-04-27T14:00:11.500Z,31.57
2023-04-27T14:02:41.065Z,30.72
2023-04-27T14:05:09.573Z,31.09
2023-04-27T14:07:37.661Z,31.36
2023-04-27T14:10:06.296Z,30.39
2023-04-27T14:12:34.156Z,30.40
2023-04-27T14:15:02.165Z,30.82
2023-04-27T14:17:29.924Z,31.04
2023-04-27T14:20:07.648Z,31.04
2023-04-27T14:22:36.916Z,30.72
2023-04-27T14:25:04.962Z,30.50
2023-04-27T14:27:33.085Z,30.55
2023-04-27T14:30:02.085Z,30.42
2023-04-27T14:32:29.891Z,30.72
2023-04-27T14:34:58.072Z,30.51
2023-04-27T14:37:27.619Z,30.33
2023-04-27T14:39:55.327Z,31.30
2023-04-27T14:42:24.114Z,31.14
2023-04-27T14:44:51.880Z,30.87
2023-04-27T14:47:19.808Z,30.92
2023-04-27T14:49:48.132Z,30.94
2023-04-27T14:52:15.908Z,31.13
2023-04-27T14:54:45.068Z,30.94
2023-04-27T14:57:13.341Z,30.81
2023-04-27T14:59:41.136Z,30.60
2023-04-27T15:02:08.913Z,30.81
2023-04-27T15:04:38.090Z,31.12
2023-04-27T15:07:06.399Z,30.69
2023-04-27T15:09:35.047Z,31.08
2023-04-27T15:12:05.578Z,31.67
2023-04-27T15:14:33.345Z,31.62
2023-04-27T15:17:01.270Z,31.75
2023-04-27T15:19:29.670Z,32.00
2023-04-27T15:21:57.438Z,31.84
2023-04-27T15:24:25.248Z,32.12
2023-04-27T15:26:53.488Z,31.96
2023-04-27T15:29:22.648Z,32.69
2023-04-27T15:31:50.707Z,32.16
2023-04-27T15:34:19.069Z,32.25
2023-04-27T15:36:46.878Z,32.61
2023-04-27T15:39:14.833Z,32.40
2023-04-27T15:41:43.382Z,32.60
2023-04-27T15:44:11.285Z,32.62
2023-04-27T15:46:40.463Z,32.91
2023-04-27T15:49:08.725Z,33.25
2023-04-27T15:51:36.484Z,32.87
2023-04-27T15:54:04.436Z,33.06
2023-04-27T15:56:32.769Z,33.21
2023-04-27T15:59:00.544Z,33.51
2023-04-27T16:01:28.506Z,33.64
2023-04-27T16:03:58.510Z,33.52
2023-04-27T16:06:31.917Z,33.23
2023-04-27T16:09:00.580Z,33.49
2023-04-27T16:11:28.377Z,33.26
2023-04-27T16:13:56.152Z,33.30
2023-04-27T16:16:24.699Z,33.36
2023-04-27T16:18:52.462Z,33.59
2023-04-27T16:21:21.748Z,33.53
2023-04-27T16:23:50.218Z,33.76
2023-04-27T16:26:18.013Z,33.76
2023-04-27T16:28:45.840Z,33.96
2023-04-27T16:31:14.490Z,34.05
2023-04-27T16:33:42.246Z,34.18
2023-04-27T16:36:12.012Z,34.13
2023-04-27T16:38:41.807Z,34.47
2023-04-27T16:41:09.569Z,34.17
2023-04-27T16:43:37.304Z,34.49
2023-04-27T16:46:06.662Z,34.33
2023-04-27T16:48:35.736Z,34.46
2023-04-27T16:51:03.793Z,34.42
2023-04-27T16:53:32.160Z,34.42
2023-04-27T16:56:02.145Z,34.51
2023-04-27T16:58:30.904Z,34.40
2023-04-27T17:00:59.491Z,34.66
2023-04-27T17:03:27.700Z,34.75
2023-04-27T17:05:55.576Z,34.87
2023-04-27T17:08:23.894Z,34.78
2023-04-27T17:10:51.651Z,34.96
2023-04-27T17:13:20.771Z,35.25
2023-04-27T17:15:49.332Z,35.35
2023-04-27T17:18:17.198Z,35.06
2023-04-27T17:20:44.979Z,35.57
2023-04-27T17:23:12.939Z,35.50
2023-04-27T17:25:41.533Z,35.60
2023-04-27T17:28:09.496Z,35.68
2023-04-27T17:30:38.985Z,35.86
2023-04-27T17:33:06.940Z,35.74
2023-04-27T17:35:34.800Z,36.14
2023-04-27T17:38:03.037Z,36.31
2023-04-27T17:40:31.971Z,36.14
2023-04-27T17:43:00.116Z,36.04
2023-04-27T17:45:29.082Z,36.29
2023-04-27T17:47:58.257Z,36.04
2023-04-27T17:50:26.584Z,35.87
2023-04-27T17:52:54.791Z,36.40
2023-04-27T17:55:23.467Z,36.55
2023-04-27T17:57:51.544Z,36.47
2023-04-27T18:00:20.013Z,36.51
2023-04-27T18:02:49.690Z,36.84
2023-04-27T18:05:19.145Z,36.67
2023-04-27T18:07:47.422Z,36.53
2023-04-27T18:10:15.221Z,36.43
2023-04-27T18:12:43.146Z,36.55
2023-04-27T18:15:11.851Z,36.62
2023-04-27T18:17:39.651Z,36.79
2023-04-27T18:20:10.464Z,36.74
2023-04-27T18:22:41.647Z,36.52
2023-04-27T18:25:10.911Z,36.80
2023-04-27T18:27:38.711Z,36.89
2023-04-27T18:30:08.777Z,37.45
2023-04-27T18:32:36.989Z,37.32
2023-04-27T18:35:05.633Z,37.19
2023-04-27T18:37:33.969Z,37.25
2023-04-27T18:40:04.854Z,37.28
2023-04-27T18:42:32.668Z,37.25
2023-04-27T18:45:01.809Z,37.36
2023-04-27T18:47:29.660Z,37.28
2023-04-27T18:49:57.436Z,37.18
2023-04-27T18:52:25.817Z,37.40
2023-04-27T18:54:53.587Z,37.43
2023-04-27T18:57:23.017Z,37.39
2023-04-27T18:59:51.313Z,37.54
2023-04-27T19:02:19.167Z,37.56
2023-04-27T19:04:52.917Z,37.44
2023-04-27T19:07:30.367Z,37.59
2023-04-27T19:09:58.142Z,37.60
2023-04-27T19:12:27.325Z,37.73
2023-04-27T19:14:55.646Z,37.82
2023-04-27T19:17:23.483Z,37.81
2023-04-27T19:19:51.286Z,37.80
2023-04-27T19:22:19.615Z,37.81
2023-04-27T19:24:47.340Z,37.82
2023-04-27T19:27:15.159Z,38.15
2023-04-27T19:29:52.580Z,37.97
2023-04-27T19:32:21.297Z,38.13
2023-04-27T19:34:49.763Z,38.13
2023-04-27T19:37:18.228Z,37.85
2023-04-27T19:39:46.876Z,37.98
2023-04-27T19:42:15.159Z,38.22
2023-04-27T19:44:43.531Z,38.23
2023-04-27T19:47:12.701Z,38.39
2023-04-27T19:49:40.482Z,38.30
2023-04-27T19:52:08.809Z,38.45
2023-04-27T19:54:38.209Z,38.60
2023-04-27T19:57:06.116Z,38.67
2023-04-27T19:59:34.270Z,38.84
2023-04-27T20:02:02.072Z,38.77
2023-04-27T20:04:31.422Z,38.88
2023-04-27T20:06:59.952Z,38.56
2023-04-27T20:09:27.823Z,38.82
2023-04-27T20:11:56.019Z,39.59
2023-04-27T20:14:24.718Z,39.34
2023-04-27T20:16:52.425Z,39.52
2023-04-27T20:19:20.842Z,40.31
2023-04-27T20:21:50.259Z,39.64
2023-04-27T20:24:18.197Z,39.90
2023-04-27T20:26:46.393Z,39.48
2023-04-27T20:29:14.480Z,40.00
2023-04-27T20:31:42.566Z,40.04
2023-04-27T20:34:10.364Z,39.87
2023-04-27T20:36:38.354Z,39.89
2023-04-27T20:39:09.006Z,40.26
2023-04-27T20:41:38.648Z,40.65
2023-04-27T20:44:06.269Z,39.45
2023-04-27T20:46:34.111Z,40.54
2023-04-27T20:49:02.127Z,40.33
2023-04-27T20:51:29.982Z,40.61
2023-04-27T20:53:57.746Z,40.25
2023-04-27T20:56:27.404Z,40.37
2023-04-27T20:58:54.968Z,39.52
2023-04-27T21:01:22.774Z,40.20
2023-04-27T21:03:51.009Z,40.38
2023-04-27T21:06:19.231Z,39.71
2023-04-27T21:08:47.080Z,40.17
2023-04-27T21:11:17.363Z,40.59
2023-04-27T21:13:47.289Z,40.56
2023-04-27T21:16:15.244Z,40.61
2023-04-27T21:18:43.113Z,41.29
2023-04-27T21:21:10.916Z,41.24
2023-04-27T21:23:39.093Z,41.38
2023-04-27T21:26:08.382Z,41.16
2023-04-27T21:28:36.931Z,41.56
2023-04-27T21:31:06.885Z,41.97
2023-04-27T21:33:34.663Z,42.08
2023-04-27T21:36:04.591Z,42.33
2023-04-27T21:38:32.432Z,41.65
2023-04-27T21:41:00.251Z,41.81
2023-04-27T21:43:28.522Z,41.55
2023-04-27T21:45:56.675Z,41.48
2023-04-27T21:48:25.948Z,42.21
2023-04-27T21:50:53.749Z,41.52
2023-04-27T21:53:21.742Z,42.16
2023-04-27T21:55:51.078Z,41.44
2023-04-27T21:58:18.859Z,41.58
2023-04-27T22:00:46.986Z,41.31
2023-04-27T22:03:14.904Z,42.07
2023-04-27T22:05:45.392Z,41.32
2023-04-27T22:08:13.655Z,41.33
2023-04-27T22:10:41.675Z,41.72
2023-04-27T22:13:18.991Z,41.33
2023-04-27T22:15:47.998Z,41.46
2023-04-27T22:18:16.115Z,41.80
2023-04-27T22:20:46.365Z,41.55
2023-04-27T22:23:14.276Z,42.09
2023-04-27T22:25:43.218Z,41.54
2023-04-27T22:28:11.813Z,41.49
2023-04-27T22:30:41.054Z,41.97
2023-04-27T22:33:09.187Z,41.50
2023-04-27T22:35:38.439Z,41.71
2023-04-27T22:38:08.101Z,41.10
2023-04-27T22:40:36.316Z,41.90
2023-04-27T22:43:04.231Z,42.08
2023-04-27T22:45:31.994Z,41.48
2023-04-27T22:47:59.892Z,41.99
2023-04-27T22:50:28.117Z,41.99
2023-04-27T22:52:55.900Z,41.81
2023-04-27T22:55:25.337Z,41.57
2023-04-27T22:57:54.157Z,41.83
2023-04-27T23:00:22.117Z,42.13
2023-04-27T23:02:50.078Z,42.03
2023-04-27T23:05:18.444Z,41.96
2023-04-27T23:07:46.412Z,42.08
2023-04-27T23:10:15.207Z,42.26
2023-04-27T23:12:44.679Z,42.43
2023-04-27T23:15:13.004Z,42.29
2023-04-27T23:17:41.252Z,42.17
2023-04-27T23:20:26.618Z,42.12
2023-04-27T23:22:56.309Z,42.54
2023-04-27T23:25:24.461Z,42.43
2023-04-27T23:27:53.611Z,42.93
2023-04-27T23:30:22.392Z,43.10
2023-04-27T23:32:50.746Z,44.60
2023-04-27T23:35:18.706Z,44.98
2023-04-27T23:37:46.467Z,44.86
2023-04-27T23:40:14.606Z,45.29
2023-04-27T23:42:42.405Z,46.26
2023-04-27T23:45:12.441Z,47.33
2023-04-27T23:47:43.248Z,48.80
2023-04-27T23:50:11.727Z,48.17
2023-04-27T23:52:39.497Z,48.46
2023-04-27T23:55:08.566Z,49.15
2023-04-27T23:57:36.332Z,50.42
